createdAt,value
2017-07-24T00:00:42.545Z,16.84
2017-07-24T00:01:41.929Z,16.79
2017-07-24T00:02:42.502Z,16.76
2017-07-24T00:03:42.482Z,16.83
2017-07-24T00:04:42.461Z,16.78
2017-07-24T00:05:42.439Z,16.68
2017-07-24T00:06:42.425Z,16.81
2017-07-24T00:07:42.400Z,16.68
2017-07-24T00:08:42.374Z,16.74
2017-07-24T00:09:42.368Z,16.81
2017-07-24T00:10:42.338Z,16.75
2017-07-24T00:11:42.351Z,16.69
2017-07-24T00:12:42.314Z,16.71
2017-07-24T00:13:41.973Z,16.71
2017-07-24T00:14:41.955Z,16.68
2017-07-24T00:15:42.232Z,16.68
2017-07-24T00:16:42.205Z,16.64
2017-07-24T00:17:42.196Z,16.66
2017-07-24T00:18:42.168Z,16.65
2017-07-24T00:19:42.171Z,16.64
2017-07-24T00:20:42.121Z,16.66
2017-07-24T00:21:42.105Z,16.64
2017-07-24T00:22:42.080Z,16.57
2017-07-24T00:23:41.765Z,16.61
2017-07-24T00:24:42.038Z,16.65
2017-07-24T00:25:42.018Z,16.64
2017-07-24T00:26:42.001Z,16.64
2017-07-24T00:27:41.981Z,16.56
2017-07-24T00:28:41.957Z,16.57
2017-07-24T00:29:41.936Z,16.56
2017-07-24T00:30:41.916Z,16.61
2017-07-24T00:31:41.598Z,16.57
2017-07-24T00:32:41.873Z,16.58
2017-07-24T00:33:41.849Z,16.54
2017-07-24T00:34:41.832Z,16.57
2017-07-24T00:35:41.810Z,16.57
2017-07-24T00:36:41.789Z,16.53
2017-07-24T00:37:41.765Z,16.46
2017-07-24T00:38:41.748Z,16.57
2017-07-24T00:39:41.728Z,16.56
2017-07-24T00:40:41.704Z,16.61
2017-07-24T00:41:41.685Z,16.47
2017-07-24T00:42:41.664Z,16.5
2017-07-24T00:43:41.695Z,16.46
2017-07-24T00:44:41.621Z,16.51
2017-07-24T00:45:41.599Z,16.47
2017-07-24T00:46:41.574Z,16.56
2017-07-24T00:47:41.558Z,16.49
2017-07-24T00:48:41.532Z,16.47
2017-07-24T00:49:41.516Z,16.51
2017-07-24T00:50:41.491Z,16.51
2017-07-24T00:51:41.471Z,16.53
2017-07-24T00:52:41.453Z,16.49
2017-07-24T00:53:41.134Z,16.47
2017-07-24T00:54:41.448Z,16.54
2017-07-24T00:55:41.388Z,16.51
2017-07-24T00:56:41.367Z,16.51
2017-07-24T00:57:41.349Z,16.49
2017-07-24T00:58:41.325Z,16.51
2017-07-24T00:59:41.008Z,16.5
2017-07-24T01:00:41.283Z,16.51
2017-07-24T01:01:41.259Z,16.54
2017-07-24T01:02:41.243Z,16.5
2017-07-24T01:03:41.221Z,16.54
2017-07-24T01:04:41.205Z,16.51
2017-07-24T01:05:40.882Z,16.49
2017-07-24T01:06:41.157Z,16.47
2017-07-24T01:07:40.836Z,16.51
2017-07-24T01:08:41.114Z,16.49
2017-07-24T01:09:41.098Z,16.46
2017-07-24T01:10:41.070Z,16.51
2017-07-24T01:11:41.216Z,16.47
2017-07-24T01:12:41.029Z,16.49
2017-07-24T01:13:41.009Z,16.51
2017-07-24T01:14:40.983Z,16.5
2017-07-24T01:15:40.963Z,16.53
2017-07-24T01:16:40.945Z,16.54
2017-07-24T01:17:40.921Z,16.51
2017-07-24T01:18:40.929Z,16.5
2017-07-24T01:19:40.880Z,16.47
2017-07-24T01:20:40.860Z,16.5
2017-07-24T01:21:40.839Z,16.5
2017-07-24T01:22:40.821Z,16.54
2017-07-24T01:23:40.800Z,16.5
2017-07-24T01:24:40.778Z,16.47
2017-07-24T01:25:40.762Z,16.54
2017-07-24T01:26:40.735Z,16.46
2017-07-24T01:27:40.715Z,16.51
2017-07-24T01:28:40.695Z,16.5
2017-07-24T01:29:40.673Z,16.46
2017-07-24T01:30:40.648Z,16.51
2017-07-24T01:31:40.630Z,16.42
2017-07-24T01:32:40.615Z,16.5
2017-07-24T01:33:40.586Z,16.51
2017-07-24T01:34:40.566Z,16.43
2017-07-24T01:35:40.543Z,16.47
2017-07-24T01:36:40.546Z,16.49
2017-07-24T01:37:40.498Z,16.49
2017-07-24T01:38:40.484Z,16.47
2017-07-24T01:39:40.459Z,16.49
2017-07-24T01:40:40.143Z,16.49
2017-07-24T01:41:40.417Z,16.5
2017-07-24T01:42:40.406Z,16.38
2017-07-24T01:43:40.376Z,16.46
2017-07-24T01:44:40.354Z,16.39
2017-07-24T01:45:40.334Z,16.41
2017-07-24T01:46:40.311Z,16.39
2017-07-24T01:47:40.296Z,16.47
2017-07-24T01:48:40.268Z,16.41
2017-07-24T01:49:40.248Z,16.47
2017-07-24T01:50:40.230Z,16.36
2017-07-24T01:51:40.204Z,16.36
2017-07-24T01:52:40.183Z,16.35
2017-07-24T01:53:40.167Z,16.42
2017-07-24T01:54:40.143Z,16.41
2017-07-24T01:55:40.118Z,16.39
2017-07-24T01:56:40.103Z,16.41
2017-07-24T01:57:40.079Z,16.35
2017-07-24T01:58:40.064Z,16.39
2017-07-24T01:59:40.044Z,16.42
2017-07-24T02:00:40.017Z,16.33
2017-07-24T02:01:39.993Z,16.43
2017-07-24T02:02:39.969Z,16.39
2017-07-24T02:03:39.953Z,16.35
2017-07-24T02:04:39.929Z,16.35
2017-07-24T02:05:39.615Z,16.41
2017-07-24T02:06:39.887Z,16.36
2017-07-24T02:07:39.570Z,16.38
2017-07-24T02:08:39.842Z,16.35
2017-07-24T02:09:39.827Z,16.38
2017-07-24T02:10:39.855Z,16.35
2017-07-24T02:11:39.785Z,16.36
2017-07-24T02:12:39.758Z,16.38
2017-07-24T02:13:39.445Z,16.41
2017-07-24T02:14:39.723Z,16.33
2017-07-24T02:15:39.700Z,16.36
2017-07-24T02:16:39.678Z,16.38
2017-07-24T02:17:39.657Z,16.41
2017-07-24T02:18:39.636Z,16.35
2017-07-24T02:19:39.618Z,16.35
2017-07-24T02:20:39.594Z,16.38
2017-07-24T02:21:39.571Z,16.36
2017-07-24T02:22:39.554Z,16.28
2017-07-24T02:23:39.535Z,16.36
2017-07-24T02:24:39.511Z,16.38
2017-07-24T02:25:39.495Z,16.35
2017-07-24T02:26:39.169Z,16.39
2017-07-24T02:27:39.445Z,16.41
2017-07-24T02:28:39.423Z,16.36
2017-07-24T02:29:39.406Z,16.33
2017-07-24T02:30:39.380Z,16.41
2017-07-24T02:31:39.361Z,16.41
2017-07-24T02:32:39.346Z,16.41
2017-07-24T02:33:39.323Z,16.38
2017-07-24T02:34:39.296Z,16.42
2017-07-24T02:35:39.277Z,16.32
2017-07-24T02:36:38.956Z,16.35
2017-07-24T02:37:38.938Z,16.38
2017-07-24T02:38:39.213Z,16.36
2017-07-24T02:39:39.187Z,16.36
2017-07-24T02:40:39.170Z,16.41
2017-07-24T02:41:39.153Z,16.32
2017-07-24T02:42:39.125Z,16.36
2017-07-24T02:43:39.106Z,16.41
2017-07-24T02:44:39.084Z,16.41
2017-07-24T02:45:39.069Z,16.33
2017-07-24T02:46:39.042Z,16.38
2017-07-24T02:47:39.021Z,16.32
2017-07-24T02:48:39.000Z,16.31
2017-07-24T02:49:38.977Z,16.38
2017-07-24T02:50:38.962Z,16.31
2017-07-24T02:51:38.940Z,16.36
2017-07-24T02:52:38.915Z,16.38
2017-07-24T02:53:38.901Z,16.29
2017-07-24T02:54:38.875Z,16.33
2017-07-24T02:55:38.849Z,16.31
2017-07-24T02:56:38.832Z,16.24
2017-07-24T02:57:38.808Z,16.15
2017-07-24T02:58:38.786Z,16.24
2017-07-24T02:59:38.786Z,16.2
2017-07-24T03:00:38.745Z,16.2
2017-07-24T03:01:38.425Z,16.04
2017-07-24T03:02:38.698Z,16.09
2017-07-24T03:03:38.720Z,16.08
2017-07-24T03:04:38.364Z,16.04
2017-07-24T03:05:38.344Z,16.08
2017-07-24T03:06:38.617Z,16.1
2017-07-24T03:07:38.593Z,16.04
2017-07-24T03:08:38.568Z,15.94
2017-07-24T03:09:38.554Z,15.92
2017-07-24T03:10:38.528Z,15.97
2017-07-24T03:11:38.505Z,15.91
2017-07-24T03:12:38.489Z,15.92
2017-07-24T03:13:38.464Z,15.88
2017-07-24T03:14:38.441Z,15.86
2017-07-24T03:15:38.422Z,15.76
2017-07-24T03:16:38.408Z,15.75
2017-07-24T03:17:38.380Z,15.82
2017-07-24T03:18:38.363Z,15.72
2017-07-24T03:19:38.333Z,15.8
2017-07-24T03:20:38.316Z,15.73
2017-07-24T03:21:38.287Z,15.76
2017-07-24T03:22:38.282Z,15.67
2017-07-24T03:23:38.245Z,15.73
2017-07-24T03:24:38.228Z,15.67
2017-07-24T03:25:38.201Z,15.68
2017-07-24T03:26:38.187Z,15.59
2017-07-24T03:27:38.158Z,15.57
2017-07-24T03:28:37.841Z,15.59
2017-07-24T03:29:38.112Z,15.59
2017-07-24T03:30:38.107Z,15.47
2017-07-24T03:31:38.094Z,15.52
2017-07-24T03:32:37.752Z,15.44
2017-07-24T03:33:38.029Z,15.43
2017-07-24T03:34:38.006Z,15.51
2017-07-24T03:35:37.697Z,15.44
2017-07-24T03:36:37.960Z,15.37
2017-07-24T03:37:37.940Z,15.44
2017-07-24T03:38:37.919Z,15.43
2017-07-24T03:39:37.899Z,15.42
2017-07-24T03:40:37.874Z,15.42
2017-07-24T03:41:37.850Z,15.36
2017-07-24T03:42:37.829Z,15.44
2017-07-24T03:43:37.809Z,15.35
2017-07-24T03:44:37.785Z,15.43
2017-07-24T03:45:37.764Z,15.46
2017-07-24T03:46:37.743Z,15.43
2017-07-24T03:47:37.723Z,15.27
2017-07-24T03:48:37.700Z,15.39
2017-07-24T03:49:37.381Z,15.36
2017-07-24T03:50:37.664Z,15.33
2017-07-24T03:51:37.628Z,15.33
2017-07-24T03:52:37.614Z,15.37
2017-07-24T03:53:37.587Z,15.39
2017-07-24T03:54:37.565Z,15.28
2017-07-24T03:55:37.538Z,15.28
2017-07-24T03:56:37.519Z,15.24
2017-07-24T03:57:37.505Z,15.25
2017-07-24T03:58:37.178Z,15.28
2017-07-24T03:59:37.460Z,15.17
2017-07-24T04:00:37.135Z,15.17
2017-07-24T04:01:37.412Z,15.18
2017-07-24T04:02:37.384Z,15.18
2017-07-24T04:03:37.360Z,15.18
2017-07-24T04:04:37.341Z,15.18
2017-07-24T04:05:37.369Z,15.18
2017-07-24T04:06:37.004Z,15.21
2017-07-24T04:07:37.274Z,15.18
2017-07-24T04:08:37.262Z,15.18
2017-07-24T04:09:37.229Z,15.17
2017-07-24T04:10:36.975Z,15.07
2017-07-24T04:11:37.186Z,15.1
2017-07-24T04:12:37.170Z,15.1
2017-07-24T04:13:37.136Z,15.15
2017-07-24T04:14:37.134Z,15.07
2017-07-24T04:15:37.096Z,15.07
2017-07-24T04:16:37.072Z,15.14
2017-07-24T04:17:37.076Z,15.07
2017-07-24T04:18:37.032Z,15.04
2017-07-24T04:19:37.013Z,15.06
2017-07-24T04:20:36.994Z,15.04
2017-07-24T04:21:36.966Z,14.94
2017-07-24T04:22:36.941Z,15.09
2017-07-24T04:23:36.923Z,15.03
2017-07-24T04:24:36.598Z,15.04
2017-07-24T04:25:36.870Z,15.04
2017-07-24T04:26:36.889Z,15.04
2017-07-24T04:27:36.823Z,15.1
2017-07-24T04:28:36.805Z,15.07
2017-07-24T04:29:36.784Z,15.07
2017-07-24T04:30:36.758Z,15.15
2017-07-24T04:31:36.741Z,15.15
2017-07-24T04:32:36.716Z,15.1
2017-07-24T04:33:36.691Z,15.15
2017-07-24T04:34:36.677Z,15.21
2017-07-24T04:35:36.648Z,15.17
2017-07-24T04:36:36.632Z,15.19
2017-07-24T04:37:36.607Z,15.24
2017-07-24T04:38:36.589Z,15.15
2017-07-24T04:39:36.572Z,15.18
2017-07-24T04:40:36.562Z,15.18
2017-07-24T04:41:36.520Z,15.11
2017-07-24T04:42:36.201Z,15.17
2017-07-24T04:43:36.173Z,15.21
2017-07-24T04:44:36.457Z,15.18
2017-07-24T04:45:36.430Z,15.19
2017-07-24T04:46:36.416Z,15.17
2017-07-24T04:47:36.386Z,15.15
2017-07-24T04:48:36.363Z,15.18
2017-07-24T04:49:36.344Z,15.14
2017-07-24T04:50:36.316Z,15.14
2017-07-24T04:51:36.299Z,15.17
2017-07-24T04:52:36.275Z,15.21
2017-07-24T04:53:36.288Z,15.21
2017-07-24T04:54:36.228Z,15.25
2017-07-24T04:55:36.205Z,15.25
2017-07-24T04:56:36.183Z,15.31
2017-07-24T04:57:36.158Z,15.21
2017-07-24T04:58:36.139Z,15.24
2017-07-24T04:59:35.821Z,15.22
2017-07-24T05:00:36.097Z,15.15
2017-07-24T05:01:36.070Z,15.19
2017-07-24T05:02:35.754Z,15.28
2017-07-24T05:03:35.736Z,15.17
2017-07-24T05:04:36.032Z,15.18
2017-07-24T05:05:35.986Z,15.21
2017-07-24T05:06:35.961Z,15.19
2017-07-24T05:07:35.944Z,15.17
2017-07-24T05:08:35.916Z,15.17
2017-07-24T05:09:36.147Z,15.17
2017-07-24T05:10:35.874Z,15.17
2017-07-24T05:11:35.850Z,15.15
2017-07-24T05:12:35.832Z,15.21
2017-07-24T05:13:35.803Z,15.22
2017-07-24T05:14:35.788Z,15.24
2017-07-24T05:15:35.763Z,15.24
2017-07-24T05:16:35.739Z,15.21
2017-07-24T05:17:35.722Z,15.18
2017-07-24T05:18:35.701Z,15.22
2017-07-24T05:19:35.375Z,15.22
2017-07-24T05:20:35.654Z,15.15
2017-07-24T05:21:35.642Z,15.21
2017-07-24T05:22:35.605Z,15.19
2017-07-24T05:23:35.612Z,15.25
2017-07-24T05:24:35.566Z,15.21
2017-07-24T05:25:35.544Z,15.19
2017-07-24T05:26:35.516Z,15.25
2017-07-24T05:27:35.495Z,15.17
2017-07-24T05:28:35.482Z,15.19
2017-07-24T05:29:35.454Z,15.18
2017-07-24T05:30:35.435Z,15.22
2017-07-24T05:31:35.410Z,15.19
2017-07-24T05:32:35.392Z,15.19
2017-07-24T05:33:35.367Z,15.28
2017-07-24T05:34:35.344Z,15.25
2017-07-24T05:35:35.340Z,15.19
2017-07-24T05:36:35.297Z,15.28
2017-07-24T05:37:35.284Z,15.18
2017-07-24T05:38:35.261Z,15.17
2017-07-24T05:39:35.238Z,15.17
2017-07-24T05:40:35.208Z,15.21
2017-07-24T05:41:35.191Z,15.19
2017-07-24T05:42:35.170Z,15.15
2017-07-24T05:43:35.149Z,15.21
2017-07-24T05:44:35.121Z,15.25
2017-07-24T05:45:35.103Z,15.17
2017-07-24T05:46:35.080Z,15.28
2017-07-24T05:47:35.059Z,15.42
2017-07-24T05:48:35.039Z,15.36
2017-07-24T05:49:35.016Z,15.35
2017-07-24T05:50:34.994Z,15.43
2017-07-24T05:51:34.971Z,15.43
2017-07-24T05:52:34.947Z,15.4
2017-07-24T05:53:34.926Z,15.43
2017-07-24T05:54:34.907Z,15.47
2017-07-24T05:55:34.888Z,15.44
2017-07-24T05:56:34.862Z,15.46
2017-07-24T05:57:34.842Z,15.44
2017-07-24T05:58:34.828Z,15.52
2017-07-24T05:59:34.796Z,15.43
2017-07-24T06:00:34.474Z,15.55
2017-07-24T06:01:34.754Z,15.44
2017-07-24T06:02:34.742Z,15.51
2017-07-24T06:03:34.416Z,15.46
2017-07-24T06:04:34.690Z,15.44
2017-07-24T06:05:34.668Z,15.57
2017-07-24T06:06:34.646Z,15.46
2017-07-24T06:07:34.619Z,15.52
2017-07-24T06:08:34.307Z,15.44
2017-07-24T06:09:34.576Z,15.44
2017-07-24T06:10:34.260Z,15.47
2017-07-24T06:11:34.236Z,15.51
2017-07-24T06:12:34.214Z,15.47
2017-07-24T06:13:34.195Z,15.46
2017-07-24T06:14:34.175Z,15.47
2017-07-24T06:15:34.153Z,15.49
2017-07-24T06:16:34.133Z,15.46
2017-07-24T06:17:34.404Z,15.47
2017-07-24T06:18:34.388Z,15.47
2017-07-24T06:19:34.361Z,15.43
2017-07-24T06:20:34.343Z,15.52
2017-07-24T06:21:34.023Z,15.52
2017-07-24T06:22:34.298Z,15.54
2017-07-24T06:23:33.982Z,15.58
2017-07-24T06:24:34.250Z,15.57
2017-07-24T06:25:34.233Z,15.65
2017-07-24T06:26:34.215Z,15.64
2017-07-24T06:27:34.188Z,15.68
2017-07-24T06:28:34.172Z,15.7
2017-07-24T06:29:34.145Z,15.67
2017-07-24T06:30:34.123Z,15.65
2017-07-24T06:31:34.105Z,15.68
2017-07-24T06:32:34.088Z,15.67
2017-07-24T06:33:34.065Z,15.59
2017-07-24T06:34:34.045Z,15.7
2017-07-24T06:35:34.016Z,15.77
2017-07-24T06:36:34.001Z,15.67
2017-07-24T06:37:33.977Z,15.68
2017-07-24T06:38:33.955Z,15.76
2017-07-24T06:39:33.933Z,15.77
2017-07-24T06:40:33.908Z,15.77
2017-07-24T06:41:33.598Z,15.86
2017-07-24T06:42:33.878Z,15.83
2017-07-24T06:43:33.845Z,15.7
2017-07-24T06:44:34.556Z,15.83
2017-07-24T06:45:33.809Z,15.77
2017-07-24T06:46:33.781Z,15.8
2017-07-24T06:47:33.766Z,15.77
2017-07-24T06:48:33.748Z,15.88
2017-07-24T06:49:33.724Z,15.86
2017-07-24T06:50:33.701Z,15.82
2017-07-24T06:51:33.384Z,15.83
2017-07-24T06:52:33.665Z,15.86
2017-07-24T06:53:33.647Z,15.79
2017-07-24T06:54:33.618Z,15.79
2017-07-24T06:55:33.594Z,15.79
2017-07-24T06:56:33.576Z,15.8
2017-07-24T06:57:33.554Z,15.86
2017-07-24T06:58:33.530Z,15.8
2017-07-24T06:59:33.509Z,15.83
2017-07-24T07:00:33.494Z,15.8
2017-07-24T07:01:33.475Z,15.73
2017-07-24T07:02:33.459Z,15.65
2017-07-24T07:03:33.425Z,15.76
2017-07-24T07:04:33.427Z,15.67
2017-07-24T07:05:33.393Z,15.65
2017-07-24T07:06:33.361Z,15.77
2017-07-24T07:07:33.344Z,15.75
2017-07-24T07:08:33.320Z,15.68
2017-07-24T07:09:33.304Z,15.8
2017-07-24T07:10:32.688Z,15.77
2017-07-24T07:11:33.363Z,15.67
2017-07-24T07:12:33.268Z,15.79
2017-07-24T07:13:33.264Z,15.72
2017-07-24T07:14:32.608Z,15.64
2017-07-24T07:15:33.347Z,15.67
2017-07-24T07:16:33.217Z,15.55
2017-07-24T07:17:33.708Z,15.64
2017-07-24T07:18:34.257Z,15.67
2017-07-24T07:19:34.263Z,15.65
2017-07-24T07:20:34.440Z,15.65
2017-07-24T07:21:34.742Z,15.73
2017-07-24T07:22:33.428Z,15.61
2017-07-24T07:23:32.714Z,15.75
2017-07-24T07:24:32.986Z,15.67
2017-07-24T07:25:32.677Z,15.76
2017-07-24T07:26:32.951Z,15.72
2017-07-24T07:27:32.933Z,15.65
2017-07-24T07:28:33.015Z,15.67
2017-07-24T07:29:32.899Z,15.72
2017-07-24T07:30:33.401Z,15.76
2017-07-24T07:31:32.549Z,15.7
2017-07-24T07:32:32.827Z,15.65
2017-07-24T07:33:32.803Z,15.67
2017-07-24T07:34:32.483Z,15.75
2017-07-24T07:35:32.756Z,15.62
2017-07-24T07:36:32.741Z,15.67
2017-07-24T07:37:32.738Z,15.75
2017-07-24T07:38:32.696Z,15.68
2017-07-24T07:39:32.378Z,15.86
2017-07-24T07:40:32.658Z,15.79
2017-07-24T07:41:32.339Z,15.73
2017-07-24T07:42:32.613Z,15.75
2017-07-24T07:43:32.997Z,15.88
2017-07-24T07:44:32.460Z,15.83
2017-07-24T07:45:32.709Z,15.83
2017-07-24T07:46:32.824Z,15.84
2017-07-24T07:47:32.579Z,15.86
2017-07-24T07:48:32.634Z,15.82
2017-07-24T07:49:32.472Z,15.77
2017-07-24T07:50:32.738Z,15.79
2017-07-24T07:51:32.433Z,15.76
2017-07-24T07:52:32.110Z,15.91
2017-07-24T07:53:32.390Z,15.79
2017-07-24T07:54:32.362Z,15.84
2017-07-24T07:55:32.393Z,15.84
2017-07-24T07:56:32.321Z,15.92
2017-07-24T07:57:32.415Z,15.95
2017-07-24T07:58:32.283Z,16
2017-07-24T07:59:32.261Z,16
2017-07-24T08:00:32.241Z,16.01
2017-07-24T08:01:32.223Z,16.02
2017-07-24T08:02:31.904Z,16.05
2017-07-24T08:03:32.177Z,16.05
2017-07-24T08:04:32.164Z,16.01
2017-07-24T08:05:31.855Z,16.04
2017-07-24T08:06:32.115Z,16
2017-07-24T08:07:32.098Z,16.05
2017-07-24T08:08:32.078Z,16.02
2017-07-24T08:09:32.053Z,16
2017-07-24T08:10:32.045Z,16.02
2017-07-24T08:11:32.016Z,16.01
2017-07-24T08:12:31.992Z,16.04
2017-07-24T08:13:31.755Z,16.05
2017-07-24T08:14:31.950Z,16.05
2017-07-24T08:15:31.644Z,16.12
2017-07-24T08:16:31.615Z,16.09
2017-07-24T08:17:31.297Z,16.04
2017-07-24T08:18:31.580Z,16.08
2017-07-24T08:19:31.556Z,16.13
2017-07-24T08:20:31.590Z,16.26
2017-07-24T08:21:31.587Z,16.21
2017-07-24T08:22:31.497Z,16.26
2017-07-24T08:23:31.181Z,16.28
2017-07-24T08:24:31.746Z,16.26
2017-07-24T08:25:31.730Z,16.31
2017-07-24T08:26:31.728Z,16.28
2017-07-24T08:27:31.693Z,16.39
2017-07-24T08:28:31.669Z,16.38
2017-07-24T08:29:31.650Z,16.36
2017-07-24T08:30:31.635Z,16.39
2017-07-24T08:31:31.617Z,16.35
2017-07-24T08:32:31.593Z,16.41
2017-07-24T08:33:31.577Z,16.41
2017-07-24T08:34:31.555Z,16.41
2017-07-24T08:35:31.245Z,16.53
2017-07-24T08:36:31.519Z,16.46
2017-07-24T08:37:31.497Z,16.46
2017-07-24T08:38:31.490Z,16.51
2017-07-24T08:39:31.456Z,16.53
2017-07-24T08:40:31.435Z,16.54
2017-07-24T08:41:31.419Z,16.5
2017-07-24T08:42:31.400Z,16.51
2017-07-24T08:43:31.081Z,16.46
2017-07-24T08:44:31.064Z,16.43
2017-07-24T08:45:31.391Z,16.47
2017-07-24T08:46:31.327Z,16.47
2017-07-24T08:47:31.302Z,16.46
2017-07-24T08:48:31.293Z,16.46
2017-07-24T08:49:31.273Z,16.42
2017-07-24T08:50:31.248Z,16.39
2017-07-24T08:51:31.224Z,16.42
2017-07-24T08:52:31.215Z,16.49
2017-07-24T08:53:30.887Z,16.53
2017-07-24T08:54:31.178Z,16.49
2017-07-24T08:55:31.154Z,16.61
2017-07-24T08:56:30.837Z,16.68
2017-07-24T08:57:30.814Z,16.64
2017-07-24T08:58:31.090Z,16.57
2017-07-24T08:59:30.778Z,16.69
2017-07-24T09:00:30.764Z,16.6
2017-07-24T09:01:31.041Z,16.64
2017-07-24T09:02:31.014Z,16.64
2017-07-24T09:03:30.996Z,16.54
2017-07-24T09:04:30.684Z,16.57
2017-07-24T09:05:30.661Z,16.58
2017-07-24T09:06:30.643Z,16.64
2017-07-24T09:07:30.622Z,16.68
2017-07-24T09:08:30.601Z,16.71
2017-07-24T09:09:30.577Z,16.72
2017-07-24T09:10:30.761Z,16.75
2017-07-24T09:11:30.846Z,16.69
2017-07-24T09:12:30.524Z,16.75
2017-07-24T09:13:30.872Z,16.75
2017-07-24T09:14:30.940Z,16.72
2017-07-24T09:15:30.210Z,16.74
2017-07-24T09:16:30.503Z,16.69
2017-07-24T09:17:30.429Z,16.65
2017-07-24T09:18:30.707Z,16.68
2017-07-24T09:19:30.393Z,16.61
2017-07-24T09:20:30.670Z,16.61
2017-07-24T09:21:30.657Z,16.6
2017-07-24T09:22:30.038Z,16.58
2017-07-24T09:23:30.610Z,16.68
2017-07-24T09:24:30.600Z,16.61
2017-07-24T09:25:30.296Z,16.69
2017-07-24T09:26:30.267Z,16.74
2017-07-24T09:27:30.241Z,16.81
2017-07-24T09:28:30.232Z,16.74
2017-07-24T09:29:30.500Z,16.74
2017-07-24T09:30:30.482Z,16.72
2017-07-24T09:31:30.460Z,16.79
2017-07-24T09:32:30.142Z,16.78
2017-07-24T09:33:30.126Z,16.89
2017-07-24T09:34:30.108Z,16.93
2017-07-24T09:35:30.088Z,16.99
2017-07-24T09:36:30.071Z,16.96
2017-07-24T09:37:30.130Z,17.01
2017-07-24T09:38:30.033Z,17.11
2017-07-24T09:39:30.015Z,17.19
2017-07-24T09:40:30.000Z,17.22
2017-07-24T09:41:30.289Z,17.26
2017-07-24T09:42:29.963Z,17.3
2017-07-24T09:43:29.946Z,17.34
2017-07-24T09:44:29.951Z,17.42
2017-07-24T09:45:30.208Z,17.45
2017-07-24T09:46:29.889Z,17.46
2017-07-24T09:47:30.177Z,17.57
2017-07-24T09:48:30.161Z,17.64
2017-07-24T09:49:30.142Z,17.79
2017-07-24T09:50:30.125Z,17.74
2017-07-24T09:51:30.107Z,17.92
2017-07-24T09:52:30.087Z,18.01
2017-07-24T09:53:30.072Z,17.97
2017-07-24T09:54:30.097Z,17.95
2017-07-24T09:55:30.058Z,18.08
2017-07-24T09:56:30.048Z,18.15
2017-07-24T09:57:30.009Z,18.22
2017-07-24T09:58:29.990Z,18.29
2017-07-24T09:59:29.978Z,18.4
2017-07-24T10:00:29.962Z,18.52
2017-07-24T10:01:29.945Z,18.53
2017-07-24T10:02:29.929Z,18.49
2017-07-24T10:03:29.914Z,18.47
2017-07-24T10:04:29.904Z,18.56
2017-07-24T10:05:29.888Z,18.55
2017-07-24T10:06:29.870Z,18.65
2017-07-24T10:07:29.848Z,18.63
2017-07-24T10:08:29.842Z,18.59
2017-07-24T10:09:29.822Z,18.68
2017-07-24T10:10:29.812Z,18.59
2017-07-24T10:11:29.499Z,18.68
2017-07-24T10:12:29.832Z,18.65
2017-07-24T10:13:29.873Z,18.62
2017-07-24T10:14:29.591Z,18.59
2017-07-24T10:15:29.482Z,18.74
2017-07-24T10:16:29.809Z,18.8
2017-07-24T10:17:29.756Z,18.77
2017-07-24T10:18:29.503Z,18.86
2017-07-24T10:19:30.170Z,18.98
2017-07-24T10:20:30.095Z,18.95
2017-07-24T10:21:29.348Z,19.12
2017-07-24T10:22:29.629Z,19.11
2017-07-24T10:23:29.392Z,19.21
2017-07-24T10:24:29.596Z,19.22
2017-07-24T10:25:29.310Z,19.21
2017-07-24T10:26:29.568Z,19.26
2017-07-24T10:27:29.552Z,19.33
2017-07-24T10:28:29.245Z,19.52
2017-07-24T10:29:29.232Z,19.79
2017-07-24T10:30:29.237Z,19.88
2017-07-24T10:31:29.497Z,19.86
2017-07-24T10:32:29.481Z,19.86
2017-07-24T10:33:29.473Z,19.95
2017-07-24T10:34:29.455Z,19.96
2017-07-24T10:35:28.849Z,19.96
2017-07-24T10:36:29.132Z,20.02
2017-07-24T10:37:29.119Z,19.95
2017-07-24T10:38:29.114Z,19.94
2017-07-24T10:39:29.091Z,19.86
2017-07-24T10:40:28.780Z,19.86
2017-07-24T10:41:29.360Z,19.71
2017-07-24T10:42:29.350Z,19.76
2017-07-24T10:43:29.346Z,19.66
2017-07-24T10:44:29.315Z,19.54
2017-07-24T10:45:29.305Z,19.52
2017-07-24T10:46:28.992Z,19.47
2017-07-24T10:47:29.272Z,19.44
2017-07-24T10:48:29.258Z,19.3
2017-07-24T10:49:29.246Z,19.27
2017-07-24T10:50:29.235Z,19.27
2017-07-24T10:51:29.213Z,19.29
2017-07-24T10:52:29.200Z,19.24
2017-07-24T10:53:29.182Z,19.11
2017-07-24T10:54:29.168Z,19.12
2017-07-24T10:55:29.164Z,18.99
2017-07-24T10:56:29.136Z,18.89
2017-07-24T10:57:29.124Z,18.73
2017-07-24T10:58:28.808Z,18.71
2017-07-24T10:59:29.093Z,18.7
2017-07-24T11:00:29.077Z,18.71
2017-07-24T11:01:29.059Z,18.78
2017-07-24T11:02:29.046Z,18.8
2017-07-24T11:03:29.031Z,18.78
2017-07-24T11:04:28.715Z,18.74
2017-07-24T11:05:28.997Z,18.73
2017-07-24T11:06:28.984Z,18.77
2017-07-24T11:07:28.664Z,18.73
2017-07-24T11:08:29.003Z,18.77
2017-07-24T11:09:29.002Z,18.77
2017-07-24T11:10:29.763Z,18.8
2017-07-24T11:11:29.108Z,18.83
2017-07-24T11:12:28.538Z,18.9
2017-07-24T11:13:28.673Z,19.02
2017-07-24T11:14:28.655Z,19.16
2017-07-24T11:15:28.929Z,19.27
2017-07-24T11:16:28.828Z,19.39
2017-07-24T11:17:28.815Z,19.48
2017-07-24T11:18:28.797Z,19.64
2017-07-24T11:19:28.782Z,19.89
2017-07-24T11:20:28.773Z,20
2017-07-24T11:21:28.758Z,20.44
2017-07-24T11:22:28.743Z,20.99
2017-07-24T11:23:28.434Z,21.2
2017-07-24T11:24:28.715Z,21.03
2017-07-24T11:25:28.760Z,20.82
2017-07-24T11:26:28.741Z,20.59
2017-07-24T11:27:29.293Z,20.14
2017-07-24T11:28:28.845Z,19.81
2017-07-24T11:29:28.797Z,19.51
2017-07-24T11:30:28.568Z,19.44
2017-07-24T11:31:28.445Z,19.21
2017-07-24T11:32:28.805Z,19.04
2017-07-24T11:33:28.398Z,18.93
2017-07-24T11:34:28.284Z,18.88
2017-07-24T11:35:28.564Z,18.8
2017-07-24T11:36:28.554Z,18.73
2017-07-24T11:37:28.538Z,18.74
2017-07-24T11:38:28.524Z,18.68
2017-07-24T11:39:28.516Z,18.75
2017-07-24T11:40:28.500Z,18.71
2017-07-24T11:41:28.477Z,18.83
2017-07-24T11:42:28.470Z,18.83
2017-07-24T11:43:28.451Z,18.78
2017-07-24T11:44:28.429Z,18.75
2017-07-24T11:45:28.416Z,18.66
2017-07-24T11:46:28.103Z,18.65
2017-07-24T11:47:28.385Z,18.63
2017-07-24T11:48:28.372Z,18.63
2017-07-24T11:49:27.762Z,18.73
2017-07-24T11:50:28.341Z,18.74
2017-07-24T11:51:28.320Z,18.7
2017-07-24T11:52:28.311Z,18.62
2017-07-24T11:53:27.992Z,18.47
2017-07-24T11:54:27.975Z,18.45
2017-07-24T11:55:28.408Z,18.38
2017-07-24T11:56:28.242Z,18.26
2017-07-24T11:57:27.931Z,18.2
2017-07-24T11:58:27.915Z,18.16
2017-07-24T11:59:28.191Z,18.13
2017-07-24T12:00:28.170Z,18.1
2017-07-24T12:01:28.158Z,18.13
2017-07-24T12:02:27.844Z,17.97
2017-07-24T12:03:28.125Z,17.94
2017-07-24T12:04:28.122Z,17.82
2017-07-24T12:05:28.095Z,17.78
2017-07-24T12:06:28.080Z,17.74
2017-07-24T12:07:28.055Z,17.74
2017-07-24T12:08:27.741Z,17.71
2017-07-24T12:09:28.015Z,17.71
2017-07-24T12:10:27.715Z,17.72
2017-07-24T12:11:27.979Z,17.68
2017-07-24T12:12:27.969Z,17.67
2017-07-24T12:13:27.943Z,17.56
2017-07-24T12:14:27.928Z,17.65
2017-07-24T12:15:27.910Z,17.72
2017-07-24T12:16:27.897Z,17.67
2017-07-24T12:17:27.880Z,17.6
2017-07-24T12:18:27.855Z,17.6
2017-07-24T12:19:27.844Z,17.59
2017-07-24T12:20:27.816Z,17.54
2017-07-24T12:21:27.800Z,17.49
2017-07-24T12:22:27.775Z,17.48
2017-07-24T12:23:27.772Z,17.49
2017-07-24T12:24:27.447Z,17.48
2017-07-24T12:25:28.176Z,17.49
2017-07-24T12:26:28.263Z,17.54
2017-07-24T12:27:27.686Z,17.52
2017-07-24T12:28:27.665Z,17.46
2017-07-24T12:29:27.350Z,17.54
2017-07-24T12:30:27.635Z,17.6
2017-07-24T12:31:27.314Z,17.71
2017-07-24T12:32:27.297Z,17.6
2017-07-24T12:33:27.570Z,17.6
2017-07-24T12:34:27.548Z,17.52
2017-07-24T12:35:27.535Z,17.54
2017-07-24T12:36:27.519Z,17.54
2017-07-24T12:37:27.495Z,17.52
2017-07-24T12:38:27.179Z,17.45
2017-07-24T12:39:27.456Z,17.38
2017-07-24T12:40:27.438Z,17.39
2017-07-24T12:41:27.419Z,17.06
2017-07-24T12:42:27.398Z,17.01
2017-07-24T12:43:27.404Z,16.79
2017-07-24T12:44:27.409Z,16.65
2017-07-24T12:45:27.340Z,16.32
2017-07-24T12:46:27.320Z,16.15
2017-07-24T12:47:27.304Z,16.04
2017-07-24T12:48:27.278Z,15.98
2017-07-24T12:49:27.209Z,15.83
2017-07-24T12:50:27.269Z,15.75
2017-07-24T12:51:27.222Z,15.67
2017-07-24T12:52:27.198Z,15.57
2017-07-24T12:53:27.205Z,15.44
2017-07-24T12:54:27.163Z,15.49